sensor_id;sensor_type;location;lat;lon;timestamp;pressure;altitude;pressure_sealevel;temperature;humidity
44872;BME280;30602;51.060;17.226;2023-06-22T00:03:51;101717.34;;;21.92;92.95
44872;BME280;30602;51.060;17.226;2023-06-22T00:07:29;101713.15;;;21.97;92.84
44872;BME280;30602;51.060;17.226;2023-06-22T00:11:44;101711.10;;;21.90;93.25
44872;BME280;30602;51.060;17.226;2023-06-22T00:15:15;101718.73;;;21.87;92.59
44872;BME280;30602;51.060;17.226;2023-06-22T00:19:09;101720.99;;;21.84;92.88
44872;BME280;30602;51.060;17.226;2023-06-22T00:22:32;101710.84;;;21.81;93.29
44872;BME280;30602;51.060;17.226;2023-06-22T00:26:33;101721.58;;;21.91;93.05
44872;BME280;30602;51.060;17.226;2023-06-22T00:30:45;101732.66;;;21.74;93.63
44872;BME280;30602;51.060;17.226;2023-06-22T00:34:51;101736.14;;;21.66;94.28
44872;BME280;30602;51.060;17.226;2023-06-22T00:38:11;101743.84;;;21.50;95.30
44872;BME280;30602;51.060;17.226;2023-06-22T00:42:26;101756.32;;;21.49;95.64
44872;BME280;30602;51.060;17.226;2023-06-22T00:46:25;101768.24;;;21.51;95.51
44872;BME280;30602;51.060;17.226;2023-06-22T00:49:51;101767.15;;;21.48;95.75
44872;BME280;30602;51.060;17.226;2023-06-22T00:57:56;101764.56;;;21.28;96.96
44872;BME280;30602;51.060;17.226;2023-06-22T01:01:31;101756.35;;;21.19;97.76
44872;BME280;30602;51.060;17.226;2023-06-22T01:05:21;101759.77;;;21.19;97.96
44872;BME280;30602;51.060;17.226;2023-06-22T01:13:11;101765.84;;;21.06;98.55
44872;BME280;30602;51.060;17.226;2023-06-22T01:17:20;101767.23;;;21.01;99.15
44872;BME280;30602;51.060;17.226;2023-06-22T01:21:10;101772.23;;;21.05;99.32
44872;BME280;30602;51.060;17.226;2023-06-22T01:25:21;101781.63;;;21.02;99.43
44872;BME280;30602;51.060;17.226;2023-06-22T01:28:51;101776.27;;;20.92;99.84
44872;BME280;30602;51.060;17.226;2023-06-22T01:32:34;101777.33;;;20.83;99.85
44872;BME280;30602;51.060;17.226;2023-06-22T01:36:00;101782.02;;;20.72;100.00
44872;BME280;30602;51.060;17.226;2023-06-22T01:39:32;101783.74;;;20.74;100.00
44872;BME280;30602;51.060;17.226;2023-06-22T01:47:02;101793.71;;;20.64;100.00
44872;BME280;30602;51.060;17.226;2023-06-22T01:50:48;101791.36;;;20.57;100.00
44872;BME280;30602;51.060;17.226;2023-06-22T01:54:42;101797.55;;;20.52;100.00
44872;BME280;30602;51.060;17.226;2023-06-22T01:58:43;101795.30;;;20.48;100.00
44872;BME280;30602;51.060;17.226;2023-06-22T02:02:54;101796.95;;;20.49;100.00
44872;BME280;30602;51.060;17.226;2023-06-22T02:06:37;101795.42;;;20.44;100.00
44872;BME280;30602;51.060;17.226;2023-06-22T02:10:39;101796.61;;;20.37;100.00
44872;BME280;30602;51.060;17.226;2023-06-22T02:14:16;101802.32;;;20.23;100.00
44872;BME280;30602;51.060;17.226;2023-06-22T02:18:01;101800.73;;;20.25;100.00
44872;BME280;30602;51.060;17.226;2023-06-22T02:21:49;101793.99;;;20.22;100.00
44872;BME280;30602;51.060;17.226;2023-06-22T02:25:15;101797.77;;;20.15;100.00
44872;BME280;30602;51.060;17.226;2023-06-22T02:33:07;101788.65;;;19.92;100.00
44872;BME280;30602;51.060;17.226;2023-06-22T02:36:50;101792.02;;;19.92;100.00
44872;BME280;30602;51.060;17.226;2023-06-22T02:40:18;101792.70;;;19.83;100.00
44872;BME280;30602;51.060;17.226;2023-06-22T02:43:40;101793.53;;;19.78;100.00
44872;BME280;30602;51.060;17.226;2023-06-22T02:47:15;101791.45;;;19.87;100.00
44872;BME280;30602;51.060;17.226;2023-06-22T02:51:09;101791.22;;;19.91;100.00
44872;BME280;30602;51.060;17.226;2023-06-22T02:54:33;101786.30;;;19.94;100.00
44872;BME280;30602;51.060;17.226;2023-06-22T02:58:01;101790.05;;;19.94;100.00
44872;BME280;30602;51.060;17.226;2023-06-22T03:01:55;101790.47;;;19.91;100.00
44872;BME280;30602;51.060;17.226;2023-06-22T03:05:40;101798.04;;;19.87;100.00
44872;BME280;30602;51.060;17.226;2023-06-22T03:09:14;101801.17;;;19.84;100.00
44872;BME280;30602;51.060;17.226;2023-06-22T03:13:24;101799.15;;;19.88;100.00
44872;BME280;30602;51.060;17.226;2023-06-22T03:17:12;101796.80;;;19.92;100.00
44872;BME280;30602;51.060;17.226;2023-06-22T03:20:41;101800.59;;;19.93;100.00
44872;BME280;30602;51.060;17.226;2023-06-22T03:24:20;101808.55;;;19.97;100.00
44872;BME280;30602;51.060;17.226;2023-06-22T03:27:59;101827.72;;;20.04;100.00
44872;BME280;30602;51.060;17.226;2023-06-22T03:31:49;101829.04;;;20.15;100.00
44872;BME280;30602;51.060;17.226;2023-06-22T03:35:45;101843.61;;;20.24;100.00
44872;BME280;30602;51.060;17.226;2023-06-22T03:39:11;101840.98;;;20.27;100.00
44872;BME280;30602;51.060;17.226;2023-06-22T03:43:06;101845.16;;;20.30;100.00
44872;BME280;30602;51.060;17.226;2023-06-22T03:46:50;101846.30;;;20.22;100.00
44872;BME280;30602;51.060;17.226;2023-06-22T03:51:02;101850.99;;;20.11;100.00
44872;BME280;30602;51.060;17.226;2023-06-22T03:54:47;101851.27;;;20.17;100.00
44872;BME280;30602;51.060;17.226;2023-06-22T03:58:33;101845.43;;;20.12;100.00
44872;BME280;30602;51.060;17.226;2023-06-22T04:02:13;101845.12;;;20.15;100.00
44872;BME280;30602;51.060;17.226;2023-06-22T04:06:34;101860.18;;;20.30;100.00
44872;BME280;30602;51.060;17.226;2023-06-22T04:10:25;101850.83;;;20.53;100.00
44872;BME280;30602;51.060;17.226;2023-06-22T04:14:18;101863.22;;;20.80;100.00
44872;BME280;30602;51.060;17.226;2023-06-22T04:18:05;101862.77;;;20.88;100.00
44872;BME280;30602;51.060;17.226;2023-06-22T04:21:55;101861.14;;;20.95;100.00
44872;BME280;30602;51.060;17.226;2023-06-22T04:26:06;101840.60;;;20.94;100.00
44872;BME280;30602;51.060;17.226;2023-06-22T04:29:58;101879.88;;;21.33;100.00
44872;BME280;30602;51.060;17.226;2023-06-22T04:33:24;101877.98;;;21.41;100.00
44872;BME280;30602;51.060;17.226;2023-06-22T04:37:08;101883.34;;;21.49;100.00
44872;BME280;30602;51.060;17.226;2023-06-22T04:41:21;101880.16;;;21.52;98.07
44872;BME280;30602;51.060;17.226;2023-06-22T04:44:48;101889.70;;;21.61;98.67
44872;BME280;30602;51.060;17.226;2023-06-22T04:49:10;101891.23;;;21.82;97.35
44872;BME280;30602;51.060;17.226;2023-06-22T04:52:46;101889.90;;;21.97;97.60
44872;BME280;30602;51.060;17.226;2023-06-22T04:57:35;101896.87;;;22.06;95.65
44872;BME280;30602;51.060;17.226;2023-06-22T05:01:10;101897.12;;;22.09;96.47
44872;BME280;30602;51.060;17.226;2023-06-22T05:04:57;101897.13;;;22.04;95.82
44872;BME280;30602;51.060;17.226;2023-06-22T05:08:36;101899.68;;;22.22;95.83
44872;BME280;30602;51.060;17.226;2023-06-22T05:12:41;101900.05;;;22.30;96.95
44872;BME280;30602;51.060;17.226;2023-06-22T05:17:19;101895.49;;;22.42;94.97
44872;BME280;30602;51.060;17.226;2023-06-22T05:21:06;101893.92;;;22.31;94.36
44872;BME280;30602;51.060;17.226;2023-06-22T05:24:51;101895.13;;;22.32;94.99
44872;BME280;30602;51.060;17.226;2023-06-22T05:28:26;101898.36;;;22.64;93.77
44872;BME280;30602;51.060;17.226;2023-06-22T05:32:18;101890.55;;;22.72;91.05
44872;BME280;30602;51.060;17.226;2023-06-22T05:35:43;101891.02;;;23.09;90.21
44872;BME280;30602;51.060;17.226;2023-06-22T05:39:39;101886.81;;;23.23;87.71
44872;BME280;30602;51.060;17.226;2023-06-22T05:43:21;101888.65;;;23.39;84.10
44872;BME280;30602;51.060;17.226;2023-06-22T05:47:18;101876.10;;;23.49;80.92
44872;BME280;30602;51.060;17.226;2023-06-22T05:51:18;101890.88;;;23.34;79.18
44872;BME280;30602;51.060;17.226;2023-06-22T05:55:17;101888.30;;;23.56;77.40
44872;BME280;30602;51.060;17.226;2023-06-22T05:58:43;101886.41;;;23.71;78.05
44872;BME280;30602;51.060;17.226;2023-06-22T06:02:38;101884.83;;;23.79;77.75
44872;BME280;30602;51.060;17.226;2023-06-22T06:06:48;101884.37;;;24.00;77.44
44872;BME280;30602;51.060;17.226;2023-06-22T06:11:01;101889.92;;;24.17;75.79
44872;BME280;30602;51.060;17.226;2023-06-22T06:14:55;101887.14;;;24.05;76.12
44872;BME280;30602;51.060;17.226;2023-06-22T06:18:54;101891.37;;;23.97;76.82
44872;BME280;30602;51.060;17.226;2023-06-22T06:22:38;101891.33;;;23.89;77.72
44872;BME280;30602;51.060;17.226;2023-06-22T06:26:27;101893.84;;;24.09;76.88
44872;BME280;30602;51.060;17.226;2023-06-22T06:30:38;101894.85;;;24.20;77.10
44872;BME280;30602;51.060;17.226;2023-06-22T06:34:37;101901.45;;;24.22;74.56
44872;BME280;30602;51.060;17.226;2023-06-22T06:38:56;101898.62;;;24.35;75.35
44872;BME280;30602;51.060;17.226;2023-06-22T06:43:23;101902.67;;;24.27;75.66
44872;BME280;30602;51.060;17.226;2023-06-22T06:46:46;101908.56;;;24.19;75.57
44872;BME280;30602;51.060;17.226;2023-06-22T06:50:25;101908.09;;;24.13;76.44
44872;BME280;30602;51.060;17.226;2023-06-22T06:54:54;101903.66;;;24.10;75.36
44872;BME280;30602;51.060;17.226;2023-06-22T06:59:07;101904.61;;;24.24;75.89
44872;BME280;30602;51.060;17.226;2023-06-22T07:02:51;101900.44;;;24.47;74.90
44872;BME280;30602;51.060;17.226;2023-06-22T07:06:49;101905.66;;;24.80;74.57
44872;BME280;30602;51.060;17.226;2023-06-22T07:10:45;101912.77;;;24.67;73.86
44872;BME280;30602;51.060;17.226;2023-06-22T07:14:47;101915.92;;;24.72;72.60
44872;BME280;30602;51.060;17.226;2023-06-22T07:18:33;101921.43;;;25.07;71.85
44872;BME280;30602;51.060;17.226;2023-06-22T07:22:13;101929.09;;;25.11;69.88
44872;BME280;30602;51.060;17.226;2023-06-22T07:25:57;101933.72;;;25.19;72.16
44872;BME280;30602;51.060;17.226;2023-06-22T07:29:44;101936.38;;;25.24;70.49
44872;BME280;30602;51.060;17.226;2023-06-22T07:33:39;101933.23;;;25.15;71.71
44872;BME280;30602;51.060;17.226;2023-06-22T07:37:36;101939.30;;;25.32;70.53
44872;BME280;30602;51.060;17.226;2023-06-22T07:41:31;101941.84;;;25.29;70.83
44872;BME280;30602;51.060;17.226;2023-06-22T07:45:14;101936.16;;;25.42;69.83
44872;BME280;30602;51.060;17.226;2023-06-22T07:48:58;101926.53;;;25.70;70.31
44872;BME280;30602;51.060;17.226;2023-06-22T07:52:24;101911.74;;;25.65;68.81
44872;BME280;30602;51.060;17.226;2023-06-22T07:57:13;101923.95;;;25.92;68.16
44872;BME280;30602;51.060;17.226;2023-06-22T08:00:56;101928.56;;;25.91;68.11
44872;BME280;30602;51.060;17.226;2023-06-22T08:05:07;101920.75;;;26.03;66.22
44872;BME280;30602;51.060;17.226;2023-06-22T08:08:46;101920.13;;;26.05;68.12
44872;BME280;30602;51.060;17.226;2023-06-22T08:12:29;101917.64;;;26.20;66.91
44872;BME280;30602;51.060;17.226;2023-06-22T08:16:22;101913.83;;;26.39;67.66
44872;BME280;30602;51.060;17.226;2023-06-22T08:20:36;101910.41;;;26.68;64.20
44872;BME280;30602;51.060;17.226;2023-06-22T08:24:20;101907.72;;;26.51;66.35
44872;BME280;30602;51.060;17.226;2023-06-22T08:28:20;101906.25;;;26.59;63.88
44872;BME280;30602;51.060;17.226;2023-06-22T08:32:18;101907.92;;;26.70;64.79
44872;BME280;30602;51.060;17.226;2023-06-22T08:35:59;101908.00;;;26.85;64.45
44872;BME280;30602;51.060;17.226;2023-06-22T08:40:12;101900.94;;;26.77;62.49
44872;BME280;30602;51.060;17.226;2023-06-22T08:43:55;101882.26;;;26.84;63.50
44872;BME280;30602;51.060;17.226;2023-06-22T08:47:40;101880.68;;;27.00;62.49
44872;BME280;30602;51.060;17.226;2023-06-22T08:51:20;101886.26;;;27.04;62.90
44872;BME280;30602;51.060;17.226;2023-06-22T08:55:40;101878.13;;;27.11;61.18
44872;BME280;30602;51.060;17.226;2023-06-22T08:59:56;101872.84;;;27.14;61.12
44872;BME280;30602;51.060;17.226;2023-06-22T09:03:54;101877.54;;;26.83;63.64
44872;BME280;30602;51.060;17.226;2023-06-22T09:07:44;101877.43;;;27.17;61.86
44872;BME280;30602;51.060;17.226;2023-06-22T09:11:37;101878.98;;;26.86;61.57
44872;BME280;30602;51.060;17.226;2023-06-22T09:15:34;101879.89;;;26.55;62.22
44872;BME280;30602;51.060;17.226;2023-06-22T09:19:32;101873.98;;;26.40;63.45
44872;BME280;30602;51.060;17.226;2023-06-22T09:23:22;101876.75;;;26.32;64.83
44872;BME280;30602;51.060;17.226;2023-06-22T09:26:41;101877.98;;;26.38;65.02
44872;BME280;30602;51.060;17.226;2023-06-22T09:30:00;101878.14;;;26.32;61.12
44872;BME280;30602;51.060;17.226;2023-06-22T09:33:42;101883.97;;;26.44;63.56
44872;BME280;30602;51.060;17.226;2023-06-22T09:37:57;101887.60;;;26.76;62.70
44872;BME280;30602;51.060;17.226;2023-06-22T09:41:37;101878.03;;;26.70;61.06
44872;BME280;30602;51.060;17.226;2023-06-22T09:45:52;101875.65;;;27.02;59.90
44872;BME280;30602;51.060;17.226;2023-06-22T09:50:23;101870.87;;;26.96;58.36
44872;BME280;30602;51.060;17.226;2023-06-22T09:53:57;101872.84;;;27.01;59.42
44872;BME280;30602;51.060;17.226;2023-06-22T10:01:36;101865.39;;;27.32;56.70
44872;BME280;30602;51.060;17.226;2023-06-22T10:05:11;101865.30;;;27.15;57.00
44872;BME280;30602;51.060;17.226;2023-06-22T10:16:48;101876.16;;;27.12;58.81
44872;BME280;30602;51.060;17.226;2023-06-22T10:20:28;101869.69;;;27.25;57.70
44872;BME280;30602;51.060;17.226;2023-06-22T10:24:12;101864.28;;;27.34;56.00
44872;BME280;30602;51.060;17.226;2023-06-22T10:27:55;101853.30;;;27.50;57.06
44872;BME280;30602;51.060;17.226;2023-06-22T10:32:19;101850.62;;;27.74;55.28
44872;BME280;30602;51.060;17.226;2023-06-22T10:36:05;101836.38;;;27.90;55.48
44872;BME280;30602;51.060;17.226;2023-06-22T10:39:37;101817.18;;;27.43;52.79
44872;BME280;30602;51.060;17.226;2023-06-22T10:43:10;101834.76;;;27.34;52.77
44872;BME280;30602;51.060;17.226;2023-06-22T10:51:06;101818.79;;;27.47;52.41
44872;BME280;30602;51.060;17.226;2023-06-22T10:54:51;101810.39;;;27.59;52.13
44872;BME280;30602;51.060;17.226;2023-06-22T10:58:15;101805.93;;;27.74;49.55
44872;BME280;30602;51.060;17.226;2023-06-22T11:02:31;101805.12;;;27.92;51.67
44872;BME280;30602;51.060;17.226;2023-06-22T11:06:25;101801.27;;;28.06;50.16
44872;BME280;30602;51.060;17.226;2023-06-22T11:10:01;101799.78;;;28.16;50.87
44872;BME280;30602;51.060;17.226;2023-06-22T11:17:20;101783.27;;;28.24;50.16
44872;BME280;30602;51.060;17.226;2023-06-22T11:21:25;101787.25;;;28.26;50.80
44872;BME280;30602;51.060;17.226;2023-06-22T11:25:00;101789.95;;;28.26;51.28
44872;BME280;30602;51.060;17.226;2023-06-22T11:29:07;101788.38;;;28.20;51.54
44872;BME280;30602;51.060;17.226;2023-06-22T11:33:02;101789.01;;;28.44;49.04
44872;BME280;30602;51.060;17.226;2023-06-22T11:40:46;101777.62;;;28.47;48.64
44872;BME280;30602;51.060;17.226;2023-06-22T11:44:28;101779.10;;;28.50;49.69
44872;BME280;30602;51.060;17.226;2023-06-22T11:47:53;101771.91;;;28.65;52.48
44872;BME280;30602;51.060;17.226;2023-06-22T11:51:29;101768.97;;;28.67;49.30
44872;BME280;30602;51.060;17.226;2023-06-22T11:55:14;101768.33;;;28.82;47.53
44872;BME280;30602;51.060;17.226;2023-06-22T11:59:20;101761.41;;;28.89;47.90
44872;BME280;30602;51.060;17.226;2023-06-22T12:03:27;101759.55;;;28.95;49.57
44872;BME280;30602;51.060;17.226;2023-06-22T12:06:48;101763.55;;;28.60;48.22
44872;BME280;30602;51.060;17.226;2023-06-22T12:10:52;101759.77;;;28.24;50.47
44872;BME280;30602;51.060;17.226;2023-06-22T12:14:40;101751.41;;;28.13;50.17
44872;BME280;30602;51.060;17.226;2023-06-22T12:18:45;101749.50;;;28.09;51.94
44872;BME280;30602;51.060;17.226;2023-06-22T12:23:08;101738.01;;;28.37;50.25
44872;BME280;30602;51.060;17.226;2023-06-22T12:26:34;101732.44;;;28.55;48.69
44872;BME280;30602;51.060;17.226;2023-06-22T12:30:00;101727.09;;;28.57;47.74
44872;BME280;30602;51.060;17.226;2023-06-22T12:34:05;101728.71;;;28.69;50.15
44872;BME280;30602;51.060;17.226;2023-06-22T12:37:48;101720.55;;;28.67;47.30
44872;BME280;30602;51.060;17.226;2023-06-22T12:41:31;101718.13;;;28.67;47.62
44872;BME280;30602;51.060;17.226;2023-06-22T12:45:12;101714.26;;;28.67;46.74
44872;BME280;30602;51.060;17.226;2023-06-22T12:48:59;101709.72;;;28.75;48.05
44872;BME280;30602;51.060;17.226;2023-06-22T12:53:14;101704.89;;;28.67;45.99
44872;BME280;30602;51.060;17.226;2023-06-22T12:56:43;101705.34;;;29.13;45.57
44872;BME280;30602;51.060;17.226;2023-06-22T13:00:08;101702.54;;;29.21;44.14
44872;BME280;30602;51.060;17.226;2023-06-22T13:03:42;101699.59;;;29.28;43.94
44872;BME280;30602;51.060;17.226;2023-06-22T13:07:27;101701.02;;;29.20;44.69
44872;BME280;30602;51.060;17.226;2023-06-22T13:11:09;101700.91;;;29.08;42.91
44872;BME280;30602;51.060;17.226;2023-06-22T13:15:17;101696.22;;;29.21;43.22
44872;BME280;30602;51.060;17.226;2023-06-22T13:18:39;101693.35;;;29.26;43.78
44872;BME280;30602;51.060;17.226;2023-06-22T13:25:53;101687.65;;;29.28;43.59
44872;BME280;30602;51.060;17.226;2023-06-22T13:29:58;101682.45;;;29.23;43.91
44872;BME280;30602;51.060;17.226;2023-06-22T13:34:24;101679.58;;;29.24;42.17
44872;BME280;30602;51.060;17.226;2023-06-22T13:37:59;101684.46;;;29.58;42.78
44872;BME280;30602;51.060;17.226;2023-06-22T13:45:46;101670.41;;;29.46;43.97
44872;BME280;30602;51.060;17.226;2023-06-22T13:49:34;101669.16;;;29.31;42.51
44872;BME280;30602;51.060;17.226;2023-06-22T13:53:45;101658.01;;;29.41;44.10
44872;BME280;30602;51.060;17.226;2023-06-22T13:57:19;101667.51;;;29.62;41.80
44872;BME280;30602;51.060;17.226;2023-06-22T14:01:14;101662.73;;;29.77;42.59
44872;BME280;30602;51.060;17.226;2023-06-22T14:04:35;101657.17;;;29.79;41.85
44872;BME280;30602;51.060;17.226;2023-06-22T14:12:16;101657.54;;;30.01;40.80
44872;BME280;30602;51.060;17.226;2023-06-22T14:15:43;101656.07;;;30.16;41.65
44872;BME280;30602;51.060;17.226;2023-06-22T14:19:13;101655.61;;;30.20;42.26
44872;BME280;30602;51.060;17.226;2023-06-22T14:23:08;101649.18;;;30.10;42.31
44872;BME280;30602;51.060;17.226;2023-06-22T14:26:32;101647.26;;;30.13;41.48
44872;BME280;30602;51.060;17.226;2023-06-22T14:31:15;101643.73;;;29.79;41.97
44872;BME280;30602;51.060;17.226;2023-06-22T14:34:38;101631.70;;;29.65;43.20
44872;BME280;30602;51.060;17.226;2023-06-22T14:38:23;101624.61;;;29.82;42.17
44872;BME280;30602;51.060;17.226;2023-06-22T14:42:17;101624.15;;;29.86;42.84
44872;BME280;30602;51.060;17.226;2023-06-22T14:45:58;101621.80;;;29.81;41.71
44872;BME280;30602;51.060;17.226;2023-06-22T14:49:22;101624.48;;;29.91;42.21
44872;BME280;30602;51.060;17.226;2023-06-22T14:52:53;101621.78;;;29.93;41.89
44872;BME280;30602;51.060;17.226;2023-06-22T14:56:36;101617.90;;;29.91;41.09
44872;BME280;30602;51.060;17.226;2023-06-22T15:00:10;101614.91;;;29.97;41.78
44872;BME280;30602;51.060;17.226;2023-06-22T15:03:35;101612.13;;;29.91;40.44
44872;BME280;30602;51.060;17.226;2023-06-22T15:07:21;101609.66;;;29.83;40.73
44872;BME280;30602;51.060;17.226;2023-06-22T15:11:14;101598.88;;;29.81;42.93
44872;BME280;30602;51.060;17.226;2023-06-22T15:14:35;101603.59;;;29.75;40.84
44872;BME280;30602;51.060;17.226;2023-06-22T15:17:57;101594.23;;;29.61;42.37
44872;BME280;30602;51.060;17.226;2023-06-22T15:21:18;101587.27;;;29.70;42.42
44872;BME280;30602;51.060;17.226;2023-06-22T15:24:41;101585.43;;;29.57;43.03
44872;BME280;30602;51.060;17.226;2023-06-22T15:28:34;101584.44;;;29.49;43.16
44872;BME280;30602;51.060;17.226;2023-06-22T15:32:20;101586.20;;;29.54;41.69
44872;BME280;30602;51.060;17.226;2023-06-22T15:35:42;101589.31;;;29.55;41.70
44872;BME280;30602;51.060;17.226;2023-06-22T15:39:17;101584.77;;;29.58;42.07
44872;BME280;30602;51.060;17.226;2023-06-22T15:43:20;101581.52;;;29.70;41.42
44872;BME280;30602;51.060;17.226;2023-06-22T15:46:48;101578.09;;;29.74;42.12
44872;BME280;30602;51.060;17.226;2023-06-22T15:50:44;101576.44;;;29.78;40.98
44872;BME280;30602;51.060;17.226;2023-06-22T15:54:34;101574.33;;;29.71;41.86
44872;BME280;30602;51.060;17.226;2023-06-22T15:57:59;101566.85;;;29.69;42.77
44872;BME280;30602;51.060;17.226;2023-06-22T16:01:46;101569.63;;;29.67;43.23
44872;BME280;30602;51.060;17.226;2023-06-22T16:05:20;101564.91;;;29.66;42.49
44872;BME280;30602;51.060;17.226;2023-06-22T16:09:06;101562.43;;;29.64;42.81
44872;BME280;30602;51.060;17.226;2023-06-22T16:13:10;101555.40;;;29.55;41.22
44872;BME280;30602;51.060;17.226;2023-06-22T16:16:50;101546.63;;;29.50;41.92
44872;BME280;30602;51.060;17.226;2023-06-22T16:20:34;101541.53;;;29.52;42.22
44872;BME280;30602;51.060;17.226;2023-06-22T16:24:06;101533.03;;;29.43;42.08
44872;BME280;30602;51.060;17.226;2023-06-22T16:27:50;101526.08;;;29.40;42.40
44872;BME280;30602;51.060;17.226;2023-06-22T16:31:55;101527.64;;;29.37;42.96
44872;BME280;30602;51.060;17.226;2023-06-22T16:35:18;101528.89;;;29.49;41.08
44872;BME280;30602;51.060;17.226;2023-06-22T16:39:11;101530.97;;;29.55;41.44
44872;BME280;30602;51.060;17.226;2023-06-22T16:43:02;101521.75;;;29.57;40.93
44872;BME280;30602;51.060;17.226;2023-06-22T16:46:27;101515.08;;;29.51;41.97
44872;BME280;30602;51.060;17.226;2023-06-22T16:50:09;101513.45;;;29.51;43.30
44872;BME280;30602;51.060;17.226;2023-06-22T16:53:56;101510.35;;;29.32;42.57
44872;BME280;30602;51.060;17.226;2023-06-22T16:57:38;101506.36;;;29.21;43.77
44872;BME280;30602;51.060;17.226;2023-06-22T17:01:11;101509.06;;;29.05;43.33
44872;BME280;30602;51.060;17.226;2023-06-22T17:04:47;101511.91;;;29.05;44.55
44872;BME280;30602;51.060;17.226;2023-06-22T17:12:38;101495.55;;;28.77;44.76
44872;BME280;30602;51.060;17.226;2023-06-22T17:16:29;101485.81;;;28.54;47.01
44872;BME280;30602;51.060;17.226;2023-06-22T17:19:55;101479.81;;;28.33;47.07
44872;BME280;30602;51.060;17.226;2023-06-22T17:23:18;101476.58;;;28.19;46.95
44872;BME280;30602;51.060;17.226;2023-06-22T17:27:28;101472.87;;;28.16;48.08
44872;BME280;30602;51.060;17.226;2023-06-22T17:31:47;101462.78;;;28.01;49.54
44872;BME280;30602;51.060;17.226;2023-06-22T17:35:10;101460.01;;;27.87;48.10
44872;BME280;30602;51.060;17.226;2023-06-22T17:38:56;101461.98;;;27.76;48.32
44872;BME280;30602;51.060;17.226;2023-06-22T17:42:39;101464.74;;;27.73;50.51
44872;BME280;30602;51.060;17.226;2023-06-22T17:46:23;101469.12;;;27.66;51.77
44872;BME280;30602;51.060;17.226;2023-06-22T17:50:25;101460.00;;;27.45;52.90
44872;BME280;30602;51.060;17.226;2023-06-22T17:54:08;101461.10;;;27.21;54.66
44872;BME280;30602;51.060;17.226;2023-06-22T17:58:01;101454.03;;;27.01;55.88
44872;BME280;30602;51.060;17.226;2023-06-22T18:01:53;101433.52;;;26.72;57.22
44872;BME280;30602;51.060;17.226;2023-06-22T18:05:16;101438.03;;;26.70;55.57
44872;BME280;30602;51.060;17.226;2023-06-22T18:08:40;101425.44;;;26.68;56.64
44872;BME280;30602;51.060;17.226;2023-06-22T18:12:06;101427.77;;;26.58;56.75
44872;BME280;30602;51.060;17.226;2023-06-22T18:15:33;101428.75;;;26.47;58.47
44872;BME280;30602;51.060;17.226;2023-06-22T18:19:46;101429.25;;;26.19;58.76
44872;BME280;30602;51.060;17.226;2023-06-22T18:23:37;101429.38;;;26.14;58.52
44872;BME280;30602;51.060;17.226;2023-06-22T18:27:23;101428.25;;;26.20;59.56
44872;BME280;30602;51.060;17.226;2023-06-22T18:31:39;101421.86;;;25.94;60.08
44872;BME280;30602;51.060;17.226;2023-06-22T18:35:26;101397.82;;;25.76;60.21
44872;BME280;30602;51.060;17.226;2023-06-22T18:39:11;101410.71;;;25.76;60.34
44872;BME280;30602;51.060;17.226;2023-06-22T18:43:40;101409.06;;;25.50;61.03
44872;BME280;30602;51.060;17.226;2023-06-22T18:47:56;101407.45;;;25.46;60.69
44872;BME280;30602;51.060;17.226;2023-06-22T18:52:26;101404.55;;;25.15;61.23
44872;BME280;30602;51.060;17.226;2023-06-22T19:03:58;101422.39;;;24.46;62.55
44872;BME280;30602;51.060;17.226;2023-06-22T19:07:56;101425.03;;;24.42;62.12
44872;BME280;30602;51.060;17.226;2023-06-22T19:11:34;101427.17;;;24.38;61.17
44872;BME280;30602;51.060;17.226;2023-06-22T19:15:10;101431.79;;;24.30;60.70
44872;BME280;30602;51.060;17.226;2023-06-22T19:18:56;101436.66;;;24.24;59.44
44872;BME280;30602;51.060;17.226;2023-06-22T19:22:18;101427.10;;;24.31;57.96
44872;BME280;30602;51.060;17.226;2023-06-22T19:26:01;101423.55;;;24.34;57.93
44872;BME280;30602;51.060;17.226;2023-06-22T19:29:53;101413.35;;;24.38;57.81
44872;BME280;30602;51.060;17.226;2023-06-22T19:34:02;101412.18;;;24.32;56.83
44872;BME280;30602;51.060;17.226;2023-06-22T19:37:49;101404.20;;;24.14;57.69
44872;BME280;30602;51.060;17.226;2023-06-22T19:41:41;101396.46;;;24.18;57.76
44872;BME280;30602;51.060;17.226;2023-06-22T19:45:25;101401.60;;;24.12;57.49
44872;BME280;30602;51.060;17.226;2023-06-22T19:48:47;101398.62;;;24.00;57.79
44872;BME280;30602;51.060;17.226;2023-06-22T19:52:54;101392.27;;;23.91;56.62
44872;BME280;30602;51.060;17.226;2023-06-22T19:57:03;101384.34;;;23.98;55.57
44872;BME280;30602;51.060;17.226;2023-06-22T20:01:39;101373.00;;;23.93;55.25
44872;BME280;30602;51.060;17.226;2023-06-22T20:05:44;101371.07;;;24.05;53.72
44872;BME280;30602;51.060;17.226;2023-06-22T20:09:28;101375.66;;;23.89;54.19
44872;BME280;30602;51.060;17.226;2023-06-22T20:13:49;101387.42;;;23.70;55.14
44872;BME280;30602;51.060;17.226;2023-06-22T20:17:15;101404.39;;;23.52;56.85
44872;BME280;30602;51.060;17.226;2023-06-22T20:20:58;101414.84;;;23.36;57.36
44872;BME280;30602;51.060;17.226;2023-06-22T20:24:21;101436.43;;;23.21;58.60
44872;BME280;30602;51.060;17.226;2023-06-22T20:28:26;101437.23;;;22.93;59.10
44872;BME280;30602;51.060;17.226;2023-06-22T20:32:15;101430.45;;;22.74;60.51
44872;BME280;30602;51.060;17.226;2023-06-22T20:36:13;101425.55;;;22.50;62.69
44872;BME280;30602;51.060;17.226;2023-06-22T20:39:40;101431.26;;;22.45;63.16